Woodhaven, Michigan
Current Conditions -  °F | °C
As of 9:14 AM on Sunday 21 Dec 2014 (Local Time) from KONZ Reporting Station
Haze Haze  
Wind Chill: -2°   Ceiling: Unl
Heat Index: -2°   Visibility: 5mi
Dew Point: -3°   Wind: 0mph
Humidity: 93%   Direction: NA
Pressure: 30.3"   Gusts: NA
Location:  42.14°N, 83.24°W
Report Text: KONZ 211414Z AUTO 00000KT 5SM BR CLR M02/M03 A3030 RMK AO2
Loading
Personal Weather Stations






























Interactive Weather Map New forecast layout! Learn more

10-Day Weather Forecast

Advertisements
Track Severe Weather on mobile